sensor_id;sensor_type;location;lat;lon;timestamp;pressure;altitude;pressure_sealevel;temperature;humidity
61436;BME280;47304;47.456;19.160;2023-12-14T00:02:04;98813.20;;;4.95;85.62
61436;BME280;47304;47.456;19.160;2023-12-14T00:04:32;98828.98;;;4.92;85.49
61436;BME280;47304;47.456;19.160;2023-12-14T00:07:01;98828.14;;;4.89;85.51
61436;BME280;47304;47.456;19.160;2023-12-14T00:09:29;98822.92;;;4.88;85.63
61436;BME280;47304;47.456;19.160;2023-12-14T00:11:58;98820.67;;;4.88;85.72
61436;BME280;47304;47.456;19.160;2023-12-14T00:14:26;98822.24;;;4.89;85.74
61436;BME280;47304;47.456;19.160;2023-12-14T00:16:55;98829.52;;;4.90;85.64
61436;BME280;47304;47.456;19.160;2023-12-14T00:19:24;98831.77;;;4.90;85.59
61436;BME280;47304;47.456;19.160;2023-12-14T00:21:53;98839.58;;;4.92;85.64
61436;BME280;47304;47.456;19.160;2023-12-14T00:24:22;98847.23;;;4.91;85.53
61436;BME280;47304;47.456;19.160;2023-12-14T00:26:50;98857.45;;;4.92;85.43
61436;BME280;47304;47.456;19.160;2023-12-14T00:29:19;98858.85;;;4.90;85.36
61436;BME280;47304;47.456;19.160;2023-12-14T00:31:47;98864.58;;;4.89;85.22
61436;BME280;47304;47.456;19.160;2023-12-14T00:34:16;98869.09;;;4.86;85.26
61436;BME280;47304;47.456;19.160;2023-12-14T00:36:44;98872.04;;;4.83;85.21
61436;BME280;47304;47.456;19.160;2023-12-14T00:39:13;98885.41;;;4.80;85.43
61436;BME280;47304;47.456;19.160;2023-12-14T00:41:41;98889.91;;;4.79;85.46
61436;BME280;47304;47.456;19.160;2023-12-14T00:44:09;98902.58;;;4.78;85.51
61436;BME280;47304;47.456;19.160;2023-12-14T00:46:38;98902.77;;;4.78;85.63
61436;BME280;47304;47.456;19.160;2023-12-14T00:49:07;98906.40;;;4.77;85.64
61436;BME280;47304;47.456;19.160;2023-12-14T00:51:36;98919.60;;;4.76;85.70
61436;BME280;47304;47.456;19.160;2023-12-14T00:54:05;98923.58;;;4.74;85.68
61436;BME280;47304;47.456;19.160;2023-12-14T00:56:33;98922.20;;;4.72;85.83
61436;BME280;47304;47.456;19.160;2023-12-14T00:59:02;98928.27;;;4.72;86.12
61436;BME280;47304;47.456;19.160;2023-12-14T01:01:30;98938.84;;;4.74;86.17
61436;BME280;47304;47.456;19.160;2023-12-14T01:03:58;98940.41;;;4.74;85.96
61436;BME280;47304;47.456;19.160;2023-12-14T01:06:27;98944.75;;;4.72;85.77
61436;BME280;47304;47.456;19.160;2023-12-14T01:08:56;98950.48;;;4.66;85.74
61436;BME280;47304;47.456;19.160;2023-12-14T01:11:24;98949.95;;;4.62;85.99
61436;BME280;47304;47.456;19.160;2023-12-14T01:13:52;98938.32;;;4.60;86.14
61436;BME280;47304;47.456;19.160;2023-12-14T01:16:21;98927.40;;;4.58;86.22
61436;BME280;47304;47.456;19.160;2023-12-14T01:18:49;98923.92;;;4.59;86.47
61436;BME280;47304;47.456;19.160;2023-12-14T01:21:17;98918.38;;;4.60;86.49
61436;BME280;47304;47.456;19.160;2023-12-14T01:23:46;98905.89;;;4.61;86.42
61436;BME280;47304;47.456;19.160;2023-12-14T01:26:14;98889.05;;;4.59;86.18
61436;BME280;47304;47.456;19.160;2023-12-14T01:28:43;98890.63;;;4.56;86.16
61436;BME280;47304;47.456;19.160;2023-12-14T01:31:11;98890.79;;;4.54;86.31
61436;BME280;47304;47.456;19.160;2023-12-14T01:33:40;98896.86;;;4.53;86.38
61436;BME280;47304;47.456;19.160;2023-12-14T01:36:09;98898.60;;;4.52;86.44
61436;BME280;47304;47.456;19.160;2023-12-14T01:38:38;98893.05;;;4.53;86.52
61436;BME280;47304;47.456;19.160;2023-12-14T01:41:07;98897.20;;;4.53;86.54
61436;BME280;47304;47.456;19.160;2023-12-14T01:43:35;98895.98;;;4.55;86.45
61436;BME280;47304;47.456;19.160;2023-12-14T01:46:05;98887.84;;;4.57;86.61
61436;BME280;47304;47.456;19.160;2023-12-14T01:48:34;98876.39;;;4.58;86.61
61436;BME280;47304;47.456;19.160;2023-12-14T01:51:03;98869.98;;;4.60;86.59
61436;BME280;47304;47.456;19.160;2023-12-14T01:53:32;98871.72;;;4.62;86.57
61436;BME280;47304;47.456;19.160;2023-12-14T01:56:00;98882.80;;;4.64;86.38
61436;BME280;47304;47.456;19.160;2023-12-14T01:58:29;98895.48;;;4.65;86.19
61436;BME280;47304;47.456;19.160;2023-12-14T02:01:03;98905.72;;;4.65;85.92
61436;BME280;47304;47.456;19.160;2023-12-14T02:03:33;98914.38;;;4.64;85.89
61436;BME280;47304;47.456;19.160;2023-12-14T02:06:02;98919.94;;;4.63;85.96
61436;BME280;47304;47.456;19.160;2023-12-14T02:08:30;98918.21;;;4.63;85.95
61436;BME280;47304;47.456;19.160;2023-12-14T02:10:59;98918.90;;;4.61;85.94
61436;BME280;47304;47.456;19.160;2023-12-14T02:13:27;98915.25;;;4.58;85.84
61436;BME280;47304;47.456;19.160;2023-12-14T02:15:55;98912.64;;;4.55;86.06
61436;BME280;47304;47.456;19.160;2023-12-14T02:18:24;98910.39;;;4.52;86.22
61436;BME280;47304;47.456;19.160;2023-12-14T02:20:52;98905.88;;;4.50;86.30
61436;BME280;47304;47.456;19.160;2023-12-14T02:23:21;98903.27;;;4.50;86.39
61436;BME280;47304;47.456;19.160;2023-12-14T02:25:49;98899.81;;;4.48;86.52
61436;BME280;47304;47.456;19.160;2023-12-14T02:28:18;98904.31;;;4.46;86.62
61436;BME280;47304;47.456;19.160;2023-12-14T02:30:47;98912.11;;;4.46;86.85
61436;BME280;47304;47.456;19.160;2023-12-14T02:33:15;98924.77;;;4.46;86.87
61436;BME280;47304;47.456;19.160;2023-12-14T02:35:43;98929.46;;;4.49;87.02
61436;BME280;47304;47.456;19.160;2023-12-14T02:38:12;98928.42;;;4.52;87.04
61436;BME280;47304;47.456;19.160;2023-12-14T02:40:40;98940.92;;;4.52;86.96
61436;BME280;47304;47.456;19.160;2023-12-14T02:43:09;98951.32;;;4.51;86.88
61436;BME280;47304;47.456;19.160;2023-12-14T02:45:38;98946.30;;;4.51;87.13
61436;BME280;47304;47.456;19.160;2023-12-14T02:48:06;98942.83;;;4.52;87.14
61436;BME280;47304;47.456;19.160;2023-12-14T02:50:35;98931.38;;;4.52;87.24
61436;BME280;47304;47.456;19.160;2023-12-14T02:53:03;98928.61;;;4.52;87.08
61436;BME280;47304;47.456;19.160;2023-12-14T02:55:32;98924.61;;;4.52;87.29
61436;BME280;47304;47.456;19.160;2023-12-14T02:58:00;98919.58;;;4.57;87.36
61436;BME280;47304;47.456;19.160;2023-12-14T03:00:29;98915.77;;;4.61;87.51
61436;BME280;47304;47.456;19.160;2023-12-14T03:02:57;98908.31;;;4.65;87.31
61436;BME280;47304;47.456;19.160;2023-12-14T03:05:26;98902.93;;;4.68;87.30
61436;BME280;47304;47.456;19.160;2023-12-14T03:07:55;98895.83;;;4.65;86.72
61436;BME280;47304;47.456;19.160;2023-12-14T03:10:23;98902.41;;;4.62;86.77
61436;BME280;47304;47.456;19.160;2023-12-14T03:12:52;98906.06;;;4.61;86.82
61436;BME280;47304;47.456;19.160;2023-12-14T03:15:21;98916.63;;;4.59;86.82
61436;BME280;47304;47.456;19.160;2023-12-14T03:17:49;98922.70;;;4.60;87.03
61436;BME280;47304;47.456;19.160;2023-12-14T03:20:18;98928.77;;;4.59;86.95
61436;BME280;47304;47.456;19.160;2023-12-14T03:22:47;98937.29;;;4.58;86.98
61436;BME280;47304;47.456;19.160;2023-12-14T03:25:17;98945.77;;;4.58;87.10
61436;BME280;47304;47.456;19.160;2023-12-14T03:27:46;98961.56;;;4.57;87.00
61436;BME280;47304;47.456;19.160;2023-12-14T03:30:14;98968.49;;;4.59;87.21
61436;BME280;47304;47.456;19.160;2023-12-14T03:32:43;98977.52;;;4.59;87.16
61436;BME280;47304;47.456;19.160;2023-12-14T03:35:11;98983.08;;;4.62;87.27
61436;BME280;47304;47.456;19.160;2023-12-14T03:37:40;98983.77;;;4.63;87.16
61436;BME280;47304;47.456;19.160;2023-12-14T03:40:09;98985.85;;;4.63;87.00
61436;BME280;47304;47.456;19.160;2023-12-14T03:42:38;98985.33;;;4.61;86.87
61436;BME280;47304;47.456;19.160;2023-12-14T03:45:08;98989.31;;;4.58;86.93
61436;BME280;47304;47.456;19.160;2023-12-14T03:47:36;98997.80;;;4.55;86.99
61436;BME280;47304;47.456;19.160;2023-12-14T03:50:10;99010.11;;;4.52;87.09
61436;BME280;47304;47.456;19.160;2023-12-14T03:52:38;99013.94;;;4.52;87.25
61436;BME280;47304;47.456;19.160;2023-12-14T03:55:09;99014.63;;;4.52;87.37
61436;BME280;47304;47.456;19.160;2023-12-14T03:57:37;99022.61;;;4.52;87.46
61436;BME280;47304;47.456;19.160;2023-12-14T04:00:09;99024.67;;;4.52;87.42
61436;BME280;47304;47.456;19.160;2023-12-14T04:02:38;99020.34;;;4.53;87.52
61436;BME280;47304;47.456;19.160;2023-12-14T04:05:07;99025.89;;;4.53;87.52
61436;BME280;47304;47.456;19.160;2023-12-14T04:07:36;99029.71;;;4.51;87.45
61436;BME280;47304;47.456;19.160;2023-12-14T04:10:06;99030.58;;;4.48;87.45
61436;BME280;47304;47.456;19.160;2023-12-14T04:12:34;99033.85;;;4.46;87.58
61436;BME280;47304;47.456;19.160;2023-12-14T04:15:04;99031.94;;;4.45;87.79
61436;BME280;47304;47.456;19.160;2023-12-14T04:17:34;99035.23;;;4.43;87.74
61436;BME280;47304;47.456;19.160;2023-12-14T04:20:04;99035.75;;;4.42;87.79
61436;BME280;47304;47.456;19.160;2023-12-14T04:22:32;99033.84;;;4.42;87.84
61436;BME280;47304;47.456;19.160;2023-12-14T04:25:01;99028.13;;;4.42;87.89
61436;BME280;47304;47.456;19.160;2023-12-14T04:27:29;99026.73;;;4.41;87.98
61436;BME280;47304;47.456;19.160;2023-12-14T04:29:57;99026.20;;;4.40;87.88
61436;BME280;47304;47.456;19.160;2023-12-14T04:32:26;99020.65;;;4.39;88.07
61436;BME280;47304;47.456;19.160;2023-12-14T04:34:54;99025.86;;;4.39;88.00
61436;BME280;47304;47.456;19.160;2023-12-14T04:37:23;99026.90;;;4.39;88.06
61436;BME280;47304;47.456;19.160;2023-12-14T04:39:52;99032.11;;;4.39;88.03
61436;BME280;47304;47.456;19.160;2023-12-14T04:42:20;99032.45;;;4.36;87.98
61436;BME280;47304;47.456;19.160;2023-12-14T04:44:48;99033.48;;;4.34;87.95
61436;BME280;47304;47.456;19.160;2023-12-14T04:47:17;99039.89;;;4.32;87.96
61436;BME280;47304;47.456;19.160;2023-12-14T04:49:45;99048.02;;;4.31;88.02
61436;BME280;47304;47.456;19.160;2023-12-14T04:52:14;99054.44;;;4.29;88.05
61436;BME280;47304;47.456;19.160;2023-12-14T04:54:42;99055.98;;;4.28;88.15
61436;BME280;47304;47.456;19.160;2023-12-14T04:57:11;99059.98;;;4.28;88.13
61436;BME280;47304;47.456;19.160;2023-12-14T04:59:42;99057.21;;;4.28;88.22
61436;BME280;47304;47.456;19.160;2023-12-14T05:02:10;99057.56;;;4.28;88.46
61436;BME280;47304;47.456;19.160;2023-12-14T05:04:39;99058.77;;;4.30;88.42
61436;BME280;47304;47.456;19.160;2023-12-14T05:07:08;99067.26;;;4.30;88.24
61436;BME280;47304;47.456;19.160;2023-12-14T05:09:36;99072.13;;;4.31;88.28
61436;BME280;47304;47.456;19.160;2023-12-14T05:12:07;99075.09;;;4.34;88.31
61436;BME280;47304;47.456;19.160;2023-12-14T05:14:36;99072.31;;;4.35;88.30
61436;BME280;47304;47.456;19.160;2023-12-14T05:17:04;99075.62;;;4.37;88.09
61436;BME280;47304;47.456;19.160;2023-12-14T05:19:34;99081.33;;;4.36;87.98
61436;BME280;47304;47.456;19.160;2023-12-14T05:22:03;99085.15;;;4.35;87.94
61436;BME280;47304;47.456;19.160;2023-12-14T05:24:32;99084.98;;;4.33;87.86
61436;BME280;47304;47.456;19.160;2023-12-14T05:27:00;99089.64;;;4.32;87.89
61436;BME280;47304;47.456;19.160;2023-12-14T05:29:29;99095.52;;;4.30;87.75
61436;BME280;47304;47.456;19.160;2023-12-14T05:31:57;99095.34;;;4.28;87.77
61436;BME280;47304;47.456;19.160;2023-12-14T05:34:26;99099.31;;;4.24;87.74
61436;BME280;47304;47.456;19.160;2023-12-14T05:36:54;99100.69;;;4.21;87.85
61436;BME280;47304;47.456;19.160;2023-12-14T05:39:23;99106.90;;;4.16;87.79
61436;BME280;47304;47.456;19.160;2023-12-14T05:41:51;99115.39;;;4.13;87.91
61436;BME280;47304;47.456;19.160;2023-12-14T05:44:20;99118.14;;;4.11;87.95
61436;BME280;47304;47.456;19.160;2023-12-14T05:46:49;99124.02;;;4.09;88.08
61436;BME280;47304;47.456;19.160;2023-12-14T05:49:17;99131.29;;;4.07;88.08
61436;BME280;47304;47.456;19.160;2023-12-14T05:51:46;99142.89;;;4.04;88.16
61436;BME280;47304;47.456;19.160;2023-12-14T05:54:14;99143.40;;;4.04;88.23
61436;BME280;47304;47.456;19.160;2023-12-14T05:56:43;99151.73;;;4.05;88.29
61436;BME280;47304;47.456;19.160;2023-12-14T05:59:11;99152.96;;;4.08;88.31
61436;BME280;47304;47.456;19.160;2023-12-14T06:01:40;99158.51;;;4.08;88.30
61436;BME280;47304;47.456;19.160;2023-12-14T06:04:09;99159.88;;;4.07;88.31
61436;BME280;47304;47.456;19.160;2023-12-14T06:06:39;99160.58;;;4.07;88.20
61436;BME280;47304;47.456;19.160;2023-12-14T06:09:07;99161.98;;;4.05;88.23
61436;BME280;47304;47.456;19.160;2023-12-14T06:11:36;99164.39;;;4.05;88.29
61436;BME280;47304;47.456;19.160;2023-12-14T06:14:04;99164.73;;;4.07;88.40
61436;BME280;47304;47.456;19.160;2023-12-14T06:16:33;99170.98;;;4.08;88.40
61436;BME280;47304;47.456;19.160;2023-12-14T06:19:01;99167.88;;;4.09;88.34
61436;BME280;47304;47.456;19.160;2023-12-14T06:21:29;99167.87;;;4.09;88.26
61436;BME280;47304;47.456;19.160;2023-12-14T06:23:58;99168.39;;;4.09;88.25
61436;BME280;47304;47.456;19.160;2023-12-14T06:26:26;99174.46;;;4.09;88.33
61436;BME280;47304;47.456;19.160;2023-12-14T06:28:55;99176.35;;;4.08;88.32
61436;BME280;47304;47.456;19.160;2023-12-14T06:31:23;99178.27;;;4.09;88.23
61436;BME280;47304;47.456;19.160;2023-12-14T06:33:51;99182.09;;;4.09;88.27
61436;BME280;47304;47.456;19.160;2023-12-14T06:36:20;99184.34;;;4.09;88.24
61436;BME280;47304;47.456;19.160;2023-12-14T06:38:48;99182.26;;;4.10;88.42
61436;BME280;47304;47.456;19.160;2023-12-14T06:41:24;99181.40;;;4.11;88.41
61436;BME280;47304;47.456;19.160;2023-12-14T06:43:53;99183.82;;;4.10;88.27
61436;BME280;47304;47.456;19.160;2023-12-14T06:46:22;99189.89;;;4.10;88.48
61436;BME280;47304;47.456;19.160;2023-12-14T06:48:51;99197.18;;;4.11;88.56
61436;BME280;47304;47.456;19.160;2023-12-14T06:51:19;99197.02;;;4.13;88.69
61436;BME280;47304;47.456;19.160;2023-12-14T06:53:48;99195.83;;;4.16;88.75
61436;BME280;47304;47.456;19.160;2023-12-14T06:56:17;99198.80;;;4.19;88.71
61436;BME280;47304;47.456;19.160;2023-12-14T06:58:45;99197.61;;;4.21;88.61
61436;BME280;47304;47.456;19.160;2023-12-14T07:01:15;99201.08;;;4.23;88.54
61436;BME280;47304;47.456;19.160;2023-12-14T07:03:44;99204.89;;;4.25;88.43
61436;BME280;47304;47.456;19.160;2023-12-14T07:06:14;99210.63;;;4.25;88.56
61436;BME280;47304;47.456;19.160;2023-12-14T07:08:43;99218.09;;;4.28;88.62
61436;BME280;47304;47.456;19.160;2023-12-14T07:11:12;99220.20;;;4.32;88.73
61436;BME280;47304;47.456;19.160;2023-12-14T07:13:42;99226.46;;;4.36;88.50
61436;BME280;47304;47.456;19.160;2023-12-14T07:16:11;99233.94;;;4.38;88.37
61436;BME280;47304;47.456;19.160;2023-12-14T07:18:40;99236.03;;;4.39;88.28
61436;BME280;47304;47.456;19.160;2023-12-14T07:21:09;99246.09;;;4.40;88.24
61436;BME280;47304;47.456;19.160;2023-12-14T07:23:37;99249.39;;;4.40;88.21
61436;BME280;47304;47.456;19.160;2023-12-14T07:26:06;99258.95;;;4.43;88.45
61436;BME280;47304;47.456;19.160;2023-12-14T07:28:35;99258.64;;;4.49;88.51
61436;BME280;47304;47.456;19.160;2023-12-14T07:31:03;99258.30;;;4.52;88.38
61436;BME280;47304;47.456;19.160;2023-12-14T07:33:32;99259.52;;;4.52;88.18
61436;BME280;47304;47.456;19.160;2023-12-14T07:36:00;99261.42;;;4.52;87.97
61436;BME280;47304;47.456;19.160;2023-12-14T07:38:29;99264.20;;;4.52;88.01
61436;BME280;47304;47.456;19.160;2023-12-14T07:40:58;99270.27;;;4.51;87.93
61436;BME280;47304;47.456;19.160;2023-12-14T07:43:26;99273.21;;;4.51;88.14
61436;BME280;47304;47.456;19.160;2023-12-14T07:45:55;99277.56;;;4.52;88.11
61436;BME280;47304;47.456;19.160;2023-12-14T07:48:23;99281.73;;;4.52;88.06
61436;BME280;47304;47.456;19.160;2023-12-14T07:50:52;99284.16;;;4.53;88.17
61436;BME280;47304;47.456;19.160;2023-12-14T07:53:20;99288.69;;;4.56;88.27
61436;BME280;47304;47.456;19.160;2023-12-14T07:55:49;99293.21;;;4.59;88.27
61436;BME280;47304;47.456;19.160;2023-12-14T07:58:18;99292.01;;;4.61;88.31
61436;BME280;47304;47.456;19.160;2023-12-14T08:00:46;99296.38;;;4.65;88.45
61436;BME280;47304;47.456;19.160;2023-12-14T08:03:15;99301.77;;;4.68;88.35
61436;BME280;47304;47.456;19.160;2023-12-14T08:05:43;99304.59;;;4.73;88.40
61436;BME280;47304;47.456;19.160;2023-12-14T08:08:12;99304.78;;;4.78;88.45
61436;BME280;47304;47.456;19.160;2023-12-14T08:10:41;99308.11;;;4.84;88.40
61436;BME280;47304;47.456;19.160;2023-12-14T08:13:09;99307.98;;;4.91;88.40
61436;BME280;47304;47.456;19.160;2023-12-14T08:15:38;99311.49;;;4.99;88.41
61436;BME280;47304;47.456;19.160;2023-12-14T08:18:06;99318.14;;;5.07;88.29
61436;BME280;47304;47.456;19.160;2023-12-14T08:20:35;99322.15;;;5.12;88.03
61436;BME280;47304;47.456;19.160;2023-12-14T08:23:04;99325.64;;;5.16;87.68
61436;BME280;47304;47.456;19.160;2023-12-14T08:25:32;99330.35;;;5.18;87.41
61436;BME280;47304;47.456;19.160;2023-12-14T08:28:00;99333.98;;;5.19;87.38
61436;BME280;47304;47.456;19.160;2023-12-14T08:30:29;99335.91;;;5.22;87.30
61436;BME280;47304;47.456;19.160;2023-12-14T08:32:58;99337.31;;;5.24;87.10
61436;BME280;47304;47.456;19.160;2023-12-14T08:35:26;99336.45;;;5.26;87.07
61436;BME280;47304;47.456;19.160;2023-12-14T08:37:54;99337.16;;;5.30;87.15
61436;BME280;47304;47.456;19.160;2023-12-14T08:40:23;99343.95;;;5.31;86.93
61436;BME280;47304;47.456;19.160;2023-12-14T08:42:52;99348.13;;;5.32;86.75
61436;BME280;47304;47.456;19.160;2023-12-14T08:45:20;99344.14;;;5.34;86.69
61436;BME280;47304;47.456;19.160;2023-12-14T08:47:48;99347.27;;;5.35;86.51
61436;BME280;47304;47.456;19.160;2023-12-14T08:50:17;99346.93;;;5.37;86.66
61436;BME280;47304;47.456;19.160;2023-12-14T08:52:46;99345.55;;;5.41;86.67
61436;BME280;47304;47.456;19.160;2023-12-14T08:55:15;99350.25;;;5.44;86.57
61436;BME280;47304;47.456;19.160;2023-12-14T08:57:43;99355.66;;;5.50;86.43
61436;BME280;47304;47.456;19.160;2023-12-14T09:00:14;99359.31;;;5.53;86.28
61436;BME280;47304;47.456;19.160;2023-12-14T09:02:42;99363.16;;;5.55;86.17
61436;BME280;47304;47.456;19.160;2023-12-14T09:05:11;99368.38;;;5.57;85.83
61436;BME280;47304;47.456;19.160;2023-12-14T09:07:40;99369.92;;;5.57;85.74
61436;BME280;47304;47.456;19.160;2023-12-14T09:10:10;99368.73;;;5.58;85.73
61436;BME280;47304;47.456;19.160;2023-12-14T09:12:38;99370.66;;;5.63;85.79
61436;BME280;47304;47.456;19.160;2023-12-14T09:15:08;99371.36;;;5.69;85.81
61436;BME280;47304;47.456;19.160;2023-12-14T09:17:37;99374.86;;;5.74;85.69
61436;BME280;47304;47.456;19.160;2023-12-14T09:20:07;99377.48;;;5.79;85.45
61436;BME280;47304;47.456;19.160;2023-12-14T09:22:36;99379.23;;;5.83;85.31
61436;BME280;47304;47.456;19.160;2023-12-14T09:25:06;99380.63;;;5.83;84.95
61436;BME280;47304;47.456;19.160;2023-12-14T09:27:35;99381.84;;;5.82;84.67
61436;BME280;47304;47.456;19.160;2023-12-14T09:30:06;99382.36;;;5.83;84.92
61436;BME280;47304;47.456;19.160;2023-12-14T09:32:35;99390.19;;;5.87;84.95
61436;BME280;47304;47.456;19.160;2023-12-14T09:35:04;99389.84;;;5.88;84.81
61436;BME280;47304;47.456;19.160;2023-12-14T09:37:33;99391.95;;;5.93;84.97
61436;BME280;47304;47.456;19.160;2023-12-14T09:40:02;99395.83;;;6.00;84.93
61436;BME280;47304;47.456;19.160;2023-12-14T09:42:38;99394.80;;;6.06;84.91
61436;BME280;47304;47.456;19.160;2023-12-14T09:45:09;99397.61;;;6.15;84.90
61436;BME280;47304;47.456;19.160;2023-12-14T09:47:40;99395.01;;;6.19;84.47
61436;BME280;47304;47.456;19.160;2023-12-14T09:50:10;99392.39;;;6.21;84.23
61436;BME280;47304;47.456;19.160;2023-12-14T09:52:39;99396.58;;;6.24;84.17
61436;BME280;47304;47.456;19.160;2023-12-14T09:55:08;99400.76;;;6.26;83.81
61436;BME280;47304;47.456;19.160;2023-12-14T09:57:36;99406.67;;;6.28;83.81
61436;BME280;47304;47.456;19.160;2023-12-14T10:00:07;99411.36;;;6.32;83.80
61436;BME280;47304;47.456;19.160;2023-12-14T10:02:36;99411.90;;;6.38;83.79
61436;BME280;47304;47.456;19.160;2023-12-14T10:05:07;99418.16;;;6.46;83.87
61436;BME280;47304;47.456;19.160;2023-12-14T10:07:35;99424.27;;;6.50;83.45
61436;BME280;47304;47.456;19.160;2023-12-14T10:10:13;99425.32;;;6.54;83.42
61436;BME280;47304;47.456;19.160;2023-12-14T10:12:53;99427.06;;;6.61;83.26
61436;BME280;47304;47.456;19.160;2023-12-14T10:15:22;99427.23;;;6.62;82.78
61436;BME280;47304;47.456;19.160;2023-12-14T10:17:52;99427.59;;;6.70;83.13
61436;BME280;47304;47.456;19.160;2023-12-14T10:20:22;99431.08;;;6.83;82.78
61436;BME280;47304;47.456;19.160;2023-12-14T10:22:51;99432.27;;;6.95;82.51
61436;BME280;47304;47.456;19.160;2023-12-14T10:25:21;99430.35;;;7.09;82.49
61436;BME280;47304;47.456;19.160;2023-12-14T10:27:52;99432.23;;;7.27;82.04
61436;BME280;47304;47.456;19.160;2023-12-14T10:30:20;99434.98;;;7.43;81.56
61436;BME280;47304;47.456;19.160;2023-12-14T10:32:50;99433.54;;;7.62;80.93
61436;BME280;47304;47.456;19.160;2023-12-14T10:35:18;99443.06;;;7.82;80.09
61436;BME280;47304;47.456;19.160;2023-12-14T10:37:48;99444.72;;;8.00;79.40
61436;BME280;47304;47.456;19.160;2023-12-14T10:40:18;99447.25;;;8.17;78.89
61436;BME280;47304;47.456;19.160;2023-12-14T10:42:47;99448.91;;;8.33;78.75
61436;BME280;47304;47.456;19.160;2023-12-14T10:45:16;99452.66;;;8.51;78.31
61436;BME280;47304;47.456;19.160;2023-12-14T10:47:46;99447.89;;;8.60;77.81
61436;BME280;47304;47.456;19.160;2023-12-14T10:50:15;99452.24;;;8.63;77.11
61436;BME280;47304;47.456;19.160;2023-12-14T10:52:46;99449.94;;;8.65;76.67
61436;BME280;47304;47.456;19.160;2023-12-14T10:55:21;99452.03;;;8.68;76.22
61436;BME280;47304;47.456;19.160;2023-12-14T10:57:52;99455.38;;;8.64;75.15
61436;BME280;47304;47.456;19.160;2023-12-14T11:00:21;99459.80;;;8.54;74.85
61436;BME280;47304;47.456;19.160;2023-12-14T11:02:50;99460.33;;;8.54;75.11
61436;BME280;47304;47.456;19.160;2023-12-14T11:05:18;99464.84;;;8.59;75.07
61436;BME280;47304;47.456;19.160;2023-12-14T11:07:48;99466.90;;;8.62;74.97
61436;BME280;47304;47.456;19.160;2023-12-14T11:10:25;99461.85;;;8.61;74.60
61436;BME280;47304;47.456;19.160;2023-12-14T11:12:59;99465.52;;;8.61;74.58
61436;BME280;47304;47.456;19.160;2023-12-14T11:15:29;99463.79;;;8.59;74.45
61436;BME280;47304;47.456;19.160;2023-12-14T11:18:24;99469.24;;;8.53;73.88
61436;BME280;47304;47.456;19.160;2023-12-14T11:20:55;99465.76;;;8.46;74.11
61436;BME280;47304;47.456;19.160;2023-12-14T11:23:43;99462.80;;;8.44;74.21
61436;BME280;47304;47.456;19.160;2023-12-14T11:26:14;99467.89;;;8.38;74.00
61436;BME280;47304;47.456;19.160;2023-12-14T11:28:49;99471.07;;;8.34;74.12
61436;BME280;47304;47.456;19.160;2023-12-14T11:31:18;99474.03;;;8.33;74.25
61436;BME280;47304;47.456;19.160;2023-12-14T11:33:47;99479.27;;;8.33;74.55
61436;BME280;47304;47.456;19.160;2023-12-14T11:36:15;99482.75;;;8.35;74.38
61436;BME280;47304;47.456;19.160;2023-12-14T11:38:44;99486.08;;;8.34;74.09
61436;BME280;47304;47.456;19.160;2023-12-14T11:41:13;99490.79;;;8.32;74.13
61436;BME280;47304;47.456;19.160;2023-12-14T11:43:42;99490.45;;;8.30;74.27
61436;BME280;47304;47.456;19.160;2023-12-14T11:46:11;99494.99;;;8.27;74.32
61436;BME280;47304;47.456;19.160;2023-12-14T11:48:40;99491.88;;;8.26;74.02
61436;BME280;47304;47.456;19.160;2023-12-14T11:51:08;99496.25;;;8.21;73.74
61436;BME280;47304;47.456;19.160;2023-12-14T11:53:38;99491.91;;;8.18;74.01
61436;BME280;47304;47.456;19.160;2023-12-14T11:56:07;99496.95;;;8.22;73.72
61436;BME280;47304;47.456;19.160;2023-12-14T11:58:39;99495.85;;;8.32;73.74
61436;BME280;47304;47.456;19.160;2023-12-14T12:01:16;99502.91;;;8.53;73.52
61436;BME280;47304;47.456;19.160;2023-12-14T12:03:45;99502.84;;;8.93;73.17
61436;BME280;47304;47.456;19.160;2023-12-14T12:06:23;99506.88;;;9.33;72.40
61436;BME280;47304;47.456;19.160;2023-12-14T12:08:52;99508.64;;;9.66;71.48
61436;BME280;47304;47.456;19.160;2023-12-14T12:11:22;99508.55;;;9.91;70.65
61436;BME280;47304;47.456;19.160;2023-12-14T12:13:53;99513.91;;;10.11;70.22
61436;BME280;47304;47.456;19.160;2023-12-14T12:16:22;99517.17;;;10.16;69.07
61436;BME280;47304;47.456;19.160;2023-12-14T12:18:51;99514.11;;;10.10;69.02
61436;BME280;47304;47.456;19.160;2023-12-14T12:21:20;99515.41;;;10.03;68.81
61436;BME280;47304;47.456;19.160;2023-12-14T12:23:48;99515.14;;;9.95;68.66
61436;BME280;47304;47.456;19.160;2023-12-14T12:26:17;99518.29;;;9.96;68.78
61436;BME280;47304;47.456;19.160;2023-12-14T12:28:45;99522.80;;;10.15;68.46
61436;BME280;47304;47.456;19.160;2023-12-14T12:31:14;99530.45;;;10.34;67.87
61436;BME280;47304;47.456;19.160;2023-12-14T12:33:42;99532.36;;;10.62;67.31
61436;BME280;47304;47.456;19.160;2023-12-14T12:36:11;99533.27;;;10.97;67.00
61436;BME280;47304;47.456;19.160;2023-12-14T12:38:40;99539.65;;;11.14;66.11
61436;BME280;47304;47.456;19.160;2023-12-14T12:41:08;99538.91;;;11.05;65.51
61436;BME280;47304;47.456;19.160;2023-12-14T12:43:37;99541.64;;;10.98;65.41
61436;BME280;47304;47.456;19.160;2023-12-14T12:46:05;99546.02;;;10.75;65.36
61436;BME280;47304;47.456;19.160;2023-12-14T12:48:34;99551.77;;;10.52;66.04
61436;BME280;47304;47.456;19.160;2023-12-14T12:51:02;99554.05;;;10.38;66.45
61436;BME280;47304;47.456;19.160;2023-12-14T12:53:31;99557.87;;;10.24;66.77
61436;BME280;47304;47.456;19.160;2023-12-14T12:56:00;99566.27;;;10.10;66.92
61436;BME280;47304;47.456;19.160;2023-12-14T12:58:28;99567.67;;;9.93;66.96
61436;BME280;47304;47.456;19.160;2023-12-14T13:00:56;99570.51;;;9.71;67.26
61436;BME280;47304;47.456;19.160;2023-12-14T13:03:25;99574.37;;;9.51;67.71
61436;BME280;47304;47.456;19.160;2023-12-14T13:05:54;99578.73;;;9.31;68.41
61436;BME280;47304;47.456;19.160;2023-12-14T13:08:22;99587.27;;;9.11;68.72
61436;BME280;47304;47.456;19.160;2023-12-14T13:10:51;99590.52;;;8.93;69.46